Time;durP1;ratioP1;P1;durP2;ratioP2;P2;SDS_P1;SDS_P2;PMS_P1;PMS_P2;Temp;Humidity;BMP_temperature;BMP_pressure;BME280_temperature;BME280_humidity;BME280_pressure;Samples;Min_cycle;Max_cycle;Signal;HPM_P1;HPM_P2
2021/06/22 00:00:04;;;;;;;17.23;14.52;;;27.50;65.10;;;;;;4777868;55;21009;-30
2021/06/22 00:05:06;;;;;;;16.70;14.35;;;27.50;65.10;;;;;;4798626;55;21472;-31
2021/06/22 00:10:09;;;;;;;16.10;14.40;;;27.50;65.10;;;;;;4772375;55;20993;-30
2021/06/22 00:15:13;;;;;;;15.88;14.18;;;27.50;65.10;;;;;;4753853;55;21082;-25
2021/06/22 00:20:16;;;;;;;15.48;13.88;;;27.50;65.10;;;;;;4790345;55;21022;-30
2021/06/22 00:25:18;;;;;;;15.70;14.10;;;27.50;65.10;;;;;;4779010;55;21498;-31
2021/06/22 00:30:21;;;;;;;18.77;14.45;;;27.50;65.10;;;;;;4738160;59;21133;-27
2021/06/22 00:35:21;;;;;;;17.20;15.40;;;27.50;65.10;;;;;;4783614;55;21025;-26
2021/06/22 00:40:23;;;;;;;17.17;14.13;;;27.50;65.10;;;;;;4750021;55;21018;-28
2021/06/22 00:45:29;;;;;;;15.77;13.52;;;27.50;65.10;;;;;;4740923;55;21469;-30
2021/06/22 00:50:30;;;;;;;16.37;14.50;;;27.50;65.10;;;;;;4797428;55;21058;-28
2021/06/22 00:55:34;;;;;;;15.85;14.15;;;27.50;65.10;;;;;;4761101;55;21630;-29
2021/06/22 01:00:37;;;;;;;16.25;14.60;;;27.50;65.10;;;;;;4770775;55;21010;-29
2021/06/22 01:05:38;;;;;;;15.15;12.88;;;27.50;65.10;;;;;;4737273;56;20994;-31
2021/06/22 01:10:40;;;;;;;14.98;13.50;;;27.50;65.10;;;;;;4743723;55;20990;-31
2021/06/22 01:15:40;;;;;;;15.85;14.18;;;27.50;65.30;;;;;;4738046;59;21094;-28
2021/06/22 01:20:41;;;;;;;15.32;13.57;;;27.50;65.10;;;;;;4741487;55;21069;-27
2021/06/22 01:25:42;;;;;;;15.18;13.65;;;27.50;65.00;;;;;;4743224;55;21021;-30
2021/06/22 01:30:43;;;;;;;14.77;13.35;;;27.50;65.10;;;;;;4738975;59;21010;-30
2021/06/22 01:35:44;;;;;;;16.17;14.38;;;27.50;65.10;;;;;;4737939;59;21014;-29
2021/06/22 01:40:47;;;;;;;15.32;13.77;;;27.50;65.10;;;;;;4738461;59;21014;-28
2021/06/22 01:45:49;;;;;;;15.82;13.75;;;27.50;65.10;;;;;;4793410;55;21010;-27
2021/06/22 01:50:50;;;;;;;15.48;13.88;;;27.50;65.10;;;;;;4738498;59;21603;-26
2021/06/22 01:55:52;;;;;;;15.35;13.75;;;27.50;65.20;;;;;;4816483;55;21061;-28
2021/06/22 02:00:56;;;;;;;15.60;13.95;;;27.50;65.00;;;;;;4751639;55;21042;-25
2021/06/22 02:05:57;;;;;;;14.05;12.65;;;27.50;65.10;;;;;;4769796;55;21062;-28
2021/06/22 02:10:58;;;;;;;15.48;13.73;;;27.50;65.10;;;;;;4774350;55;21009;-25
2021/06/22 02:15:59;;;;;;;14.52;13.02;;;27.50;65.00;;;;;;4740334;55;20978;-27
2021/06/22 02:21:01;;;;;;;14.82;13.32;;;27.50;65.10;;;;;;4738499;59;21053;-28
2021/06/22 02:26:03;;;;;;;14.77;13.38;;;27.50;65.10;;;;;;4737627;59;21516;-28
2021/06/22 02:31:04;;;;;;;14.77;12.88;;;27.50;64.50;;;;;;4782497;55;21101;-30
2021/06/22 02:36:06;;;;;;;15.23;13.13;;;27.50;65.10;;;;;;4756195;55;20994;-28
2021/06/22 02:41:07;;;;;;;14.82;13.32;;;27.50;65.10;;;;;;4753518;55;21001;-27
2021/06/22 02:46:08;;;;;;;14.18;12.68;;;27.50;65.10;;;;;;4777405;55;21002;-29
2021/06/22 02:51:09;;;;;;;13.93;12.48;;;27.50;65.10;;;;;;4768724;55;21492;-30
2021/06/22 02:56:10;;;;;;;14.93;13.43;;;27.50;65.00;;;;;;4762416;55;21053;-26
2021/06/22 03:01:11;;;;;;;15.02;12.85;;;27.50;65.00;;;;;;4759304;55;21069;-30
2021/06/22 03:06:12;;;;;;;14.30;12.80;;;27.50;65.00;;;;;;4737442;59;21042;-29
2021/06/22 03:11:12;;;;;;;15.07;13.48;;;27.50;65.00;;;;;;4738490;55;21034;-29
2021/06/22 03:16:13;;;;;;;14.68;13.18;;;27.50;65.00;;;;;;4758570;55;21525;-27
2021/06/22 03:21:14;;;;;;;16.33;13.85;;;27.50;65.00;;;;;;4759316;55;21475;-23
2021/06/22 03:26:16;;;;;;;15.05;12.48;;;27.50;65.00;;;;;;4754188;55;21061;-25
2021/06/22 03:31:17;;;;;;;15.52;13.00;;;27.50;65.00;;;;;;4758798;55;21078;-27
2021/06/22 03:36:17;;;;;;;14.27;12.82;;;27.40;64.90;;;;;;4738596;59;20997;-21
2021/06/22 03:41:22;;;;;;;17.35;12.68;;;27.50;65.00;;;;;;4760459;55;21070;-23
2021/06/22 03:46:22;;;;;;;12.80;11.50;;;27.50;65.00;;;;;;4782655;55;21046;-28
2021/06/22 03:51:23;;;;;;;15.63;12.45;;;27.50;65.00;;;;;;4775468;55;21097;-28
2021/06/22 03:56:25;;;;;;;14.45;12.15;;;27.50;65.00;;;;;;4742035;55;22390;-25
2021/06/22 04:01:26;;;;;;;16.20;12.80;;;27.40;64.90;;;;;;4738554;59;22001;-20
2021/06/22 04:06:26;;;;;;;18.85;13.25;;;27.40;64.90;;;;;;4737919;59;21021;-28
2021/06/22 04:11:28;;;;;;;16.25;12.75;;;27.40;65.00;;;;;;4749005;55;21046;-25
2021/06/22 04:16:29;;;;;;;16.55;12.80;;;27.40;64.90;;;;;;4738517;55;21572;-27
2021/06/22 04:21:30;;;;;;;16.02;12.40;;;27.50;64.90;;;;;;4750660;55;21099;-30
2021/06/22 04:26:31;;;;;;;15.52;12.75;;;27.50;64.90;;;;;;4763186;55;21124;-29
2021/06/22 04:31:32;;;;;;;16.48;12.30;;;27.50;64.90;;;;;;4808279;55;21017;-30
2021/06/22 04:36:33;;;;;;;15.38;12.45;;;27.50;64.90;;;;;;4738460;55;21121;-28
2021/06/22 04:41:34;;;;;;;13.82;12.25;;;27.40;64.90;;;;;;4862512;55;21053;-28
2021/06/22 04:46:34;;;;;;;18.40;12.50;;;27.40;64.80;;;;;;4759268;55;21014;-24
2021/06/22 04:51:35;;;;;;;15.63;12.23;;;27.40;64.80;;;;;;4758491;55;21005;-27
2021/06/22 04:56:38;;;;;;;16.77;12.93;;;27.40;64.80;;;;;;4738429;59;21464;-25
2021/06/22 05:01:39;;;;;;;15.23;12.02;;;27.50;64.80;;;;;;4756892;55;21069;-29
2021/06/22 05:06:40;;;;;;;18.90;12.73;;;27.40;64.80;;;;;;4758091;55;21058;-29
2021/06/22 05:11:41;;;;;;;17.35;11.88;;;27.40;64.70;;;;;;4738913;55;21161;-22
2021/06/22 05:16:41;;;;;;;14.40;12.30;;;27.40;64.70;;;;;;4756629;55;20997;-28
2021/06/22 05:21:43;;;;;;;19.05;12.13;;;27.40;64.80;;;;;;4738299;59;21069;-27
2021/06/22 05:26:44;;;;;;;15.85;12.48;;;27.40;64.70;;;;;;4756181;55;21006;-30
2021/06/22 05:31:45;;;;;;;17.87;11.85;;;27.40;64.70;;;;;;4756988;55;21077;-30
2021/06/22 05:36:45;;;;;;;15.00;12.15;;;27.40;64.70;;;;;;4757954;55;21488;-31
2021/06/22 05:41:46;;;;;;;15.88;11.63;;;27.40;64.70;;;;;;4757439;55;21057;-27
2021/06/22 05:46:47;;;;;;;15.80;11.50;;;27.40;64.70;;;;;;4761135;55;21544;-30
2021/06/22 05:51:48;;;;;;;17.98;12.45;;;27.40;64.70;;;;;;4784005;55;20994;-28
2021/06/22 05:56:49;;;;;;;16.50;11.90;;;27.40;64.70;;;;;;4769362;55;21033;-29
2021/06/22 06:01:50;;;;;;;17.48;12.32;;;27.40;65.00;;;;;;4738701;59;21010;-29
2021/06/22 06:06:51;;;;;;;15.40;11.30;;;27.40;64.70;;;;;;4752036;55;21551;-29
2021/06/22 06:11:52;;;;;;;17.37;12.40;;;27.40;64.70;;;;;;4743263;55;21101;-29
2021/06/22 06:16:53;;;;;;;18.42;12.15;;;27.40;64.70;;;;;;4752494;55;21006;-29
2021/06/22 06:21:54;;;;;;;16.58;11.98;;;27.40;64.60;;;;;;4748952;55;21014;-30
2021/06/22 06:27:11;;;;;;;16.75;11.82;;;27.40;64.70;;;;;;4748640;55;20994;-25
2021/06/22 06:32:12;;;;;;;16.02;11.82;;;27.40;64.70;;;;;;4782509;55;21564;-28
2021/06/22 06:37:13;;;;;;;15.23;11.12;;;27.40;64.70;;;;;;4749736;55;21093;-29
2021/06/22 06:42:14;;;;;;;16.10;11.98;;;27.40;64.60;;;;;;4759764;55;21013;-27
2021/06/22 06:47:15;;;;;;;16.55;12.07;;;27.40;64.60;;;;;;4818987;55;21547;-28
2021/06/22 06:52:15;;;;;;;15.77;11.95;;;27.40;64.60;;;;;;4761246;55;21081;-23
2021/06/22 06:57:17;;;;;;;15.27;11.98;;;27.40;64.60;;;;;;4744120;55;21002;-23
2021/06/22 07:02:17;;;;;;;16.37;11.30;;;27.50;64.70;;;;;;4737922;59;21021;-25
2021/06/22 07:07:18;;;;;;;17.15;13.10;;;27.40;64.60;;;;;;4761702;55;21007;-31
2021/06/22 07:12:19;;;;;;;15.10;11.73;;;27.40;65.20;;;;;;4745172;55;21022;-26
2021/06/22 07:17:23;;;;;;;15.82;11.73;;;27.50;64.70;;;;;;4752383;55;21121;-28
2021/06/22 07:22:24;;;;;;;17.48;12.45;;;27.50;64.90;;;;;;4737691;59;21026;-22
2021/06/22 07:27:24;;;;;;;16.30;12.37;;;27.50;65.20;;;;;;4786096;55;21536;-30
2021/06/22 07:32:28;;;;;;;18.12;12.40;;;27.60;65.50;;;;;;4738506;55;21009;-29
2021/06/22 07:37:32;;;;;;;16.70;12.25;;;27.60;65.70;;;;;;4756143;55;21715;-29
2021/06/22 07:42:33;;;;;;;17.27;12.50;;;27.60;65.80;;;;;;4801894;55;21066;-28
2021/06/22 07:47:34;;;;;;;17.52;12.63;;;27.60;65.70;;;;;;4778219;55;21046;-32
2021/06/22 07:52:34;;;;;;;17.02;12.45;;;27.70;65.50;;;;;;4751857;55;21002;-34
2021/06/22 07:57:35;;;;;;;16.17;12.82;;;27.70;65.40;;;;;;4754101;55;21073;-29
2021/06/22 08:02:38;;;;;;;15.20;12.45;;;27.70;65.40;;;;;;4779372;55;21046;-25
2021/06/22 08:07:39;;;;;;;16.15;12.77;;;27.70;65.40;;;;;;4737813;59;21480;-26
2021/06/22 08:12:40;;;;;;;16.45;12.82;;;27.70;65.60;;;;;;4757066;55;21047;-30
2021/06/22 08:17:40;;;;;;;16.25;12.60;;;27.70;65.60;;;;;;4777730;55;21022;-25
2021/06/22 08:22:41;;;;;;;19.23;13.43;;;27.80;65.80;;;;;;4752707;55;21006;-30
2021/06/22 08:27:42;;;;;;;17.35;12.63;;;27.80;65.80;;;;;;4752168;55;21010;-29
2021/06/22 08:32:43;;;;;;;15.30;12.50;;;27.80;65.90;;;;;;4757149;55;20998;-28
2021/06/22 08:37:44;;;;;;;14.90;11.85;;;27.90;66.20;;;;;;4741508;55;21057;-25
2021/06/22 08:42:45;;;;;;;18.08;12.52;;;27.90;66.30;;;;;;4806823;55;21033;-22
2021/06/22 08:47:46;;;;;;;20.75;13.43;;;27.90;66.30;;;;;;4779413;55;21014;-31
2021/06/22 08:52:47;;;;;;;16.00;12.85;;;27.90;66.40;;;;;;4762056;55;21025;-25
2021/06/22 08:57:48;;;;;;;16.50;12.70;;;27.90;66.40;;;;;;4780188;55;22167;-31
2021/06/22 09:03:11;;;;;;;15.52;12.02;;;28.00;66.50;;;;;;4791149;55;21721;-31
2021/06/22 09:08:34;;;;;;;14.50;12.23;;;27.90;66.40;;;;;;4743042;55;21512;-27
2021/06/22 09:13:36;;;;;;;15.43;12.75;;;28.00;66.50;;;;;;4782752;55;21592;-27
2021/06/22 09:18:40;;;;;;;19.60;11.82;;;28.00;66.80;;;;;;4738081;59;21131;-28
2021/06/22 09:23:43;;;;;;;16.02;13.27;;;28.00;66.90;;;;;;4765314;55;21532;-28
2021/06/22 09:28:44;;;;;;;14.60;11.77;;;28.10;67.30;;;;;;4752297;55;20998;-30
2021/06/22 09:33:48;;;;;;;23.50;13.38;;;28.10;67.70;;;;;;4737529;55;21552;-28
2021/06/22 09:38:58;;;;;;;21.42;11.90;;;28.10;66.10;;;;;;4751984;55;21472;-30
2021/06/22 09:44:10;;;;;;;21.27;12.60;;;28.10;66.50;;;;;;4755005;55;21006;-29
2021/06/22 09:49:35;;;;;;;20.83;11.82;;;28.10;66.40;;;;;;4773540;55;21057;-31
2021/06/22 09:54:48;;;;;;;20.62;11.95;;;28.10;66.30;;;;;;4787732;55;21022;-25
2021/06/22 09:59:54;;;;;;;18.85;12.20;;;28.10;66.20;;;;;;4794349;55;21046;-31
2021/06/22 10:04:57;;;;;;;20.70;12.37;;;28.10;66.20;;;;;;4787335;55;21503;-27
2021/06/22 10:10:02;;;;;;;19.23;11.93;;;28.10;66.10;;;;;;4758795;55;21511;-27
2021/06/22 10:15:04;;;;;;;16.67;11.30;;;28.10;66.10;;;;;;4766306;55;21022;-27
2021/06/22 10:20:07;;;;;;;19.58;11.43;;;28.10;66.00;;;;;;4757895;55;21218;-22
2021/06/22 10:25:10;;;;;;;20.67;12.25;;;28.10;65.90;;;;;;4802443;55;21066;-28
2021/06/22 10:30:12;;;;;;;57.67;30.42;;;28.10;65.90;;;;;;4760653;55;20986;-24
2021/06/22 10:35:14;;;;;;;54.40;28.23;;;28.20;60.60;;;;;;4776559;55;21046;-27
2021/06/22 10:40:30;;;;;;;57.60;23.92;;;28.30;57.20;;;;;;4739634;55;21109;-30
2021/06/22 10:45:31;;;;;;;52.70;21.07;;;28.30;56.20;;;;;;4764882;55;21033;-27
2021/06/22 10:50:32;;;;;;;52.62;18.95;;;28.40;55.00;;;;;;4760267;55;21125;-29
2021/06/22 10:55:56;;;;;;;47.67;16.08;;;28.50;54.10;;;;;;4748211;55;21622;-30
2021/06/22 11:01:08;;;;;;;57.72;16.70;;;28.50;54.20;;;;;;4771418;55;21555;-25
2021/06/22 11:06:28;;;;;;;50.08;17.15;;;28.50;54.80;;;;;;4768083;55;21596;-23
2021/06/22 11:11:29;;;;;;;43.42;15.93;;;28.50;55.20;;;;;;4737002;59;21607;-29
2021/06/22 11:16:32;;;;;;;48.60;16.92;;;28.40;55.90;;;;;;4765355;55;21081;-22
2021/06/22 11:22:52;;;;;;;44.00;15.40;;;28.40;56.80;;;;;;4738776;55;21010;-25
2021/06/22 11:28:06;;;;;;;115.10;73.78;;;28.50;57.10;;;;;;4744306;55;21081;-30
2021/06/22 11:33:33;;;;;;;79.47;42.85;;;28.50;54.30;;;;;;4766629;55;21042;-31
2021/06/22 11:38:34;;;;;;;73.70;30.70;;;28.60;53.70;;;;;;4763968;55;21496;-28
2021/06/22 11:43:35;;;;;;;73.32;24.50;;;28.70;52.60;;;;;;4784099;55;21100;-22
2021/06/22 11:48:58;;;;;;;60.00;21.80;;;28.70;51.90;;;;;;4739142;55;21860;-28
2021/06/22 11:53:59;;;;;;;56.70;18.35;;;28.80;51.80;;;;;;4748896;55;20994;-27
2021/06/22 11:59:03;;;;;;;59.63;17.37;;;28.90;52.10;;;;;;4797872;55;21109;-28
2021/06/22 12:04:06;;;;;;;50.95;15.52;;;28.90;52.20;;;;;;4743773;55;21054;-27
2021/06/22 12:09:20;;;;;;;50.25;15.95;;;28.90;52.50;;;;;;4741298;55;21861;-29
2021/06/22 12:14:21;;;;;;;41.85;14.98;;;29.00;52.60;;;;;;4745887;55;21527;-29
2021/06/22 12:19:24;;;;;;;52.30;16.08;;;29.00;53.40;;;;;;4746970;55;21046;-26
2021/06/22 12:24:25;;;;;;;45.83;16.02;;;28.90;54.60;;;;;;4742092;55;21089;-30
2021/06/22 12:29:29;;;;;;;42.45;14.80;;;28.90;54.80;;;;;;4743267;55;21049;-22
2021/06/22 12:34:34;;;;;;;38.45;14.63;;;28.80;56.00;;;;;;4790008;55;21473;-29
2021/06/22 12:39:37;;;;;;;45.58;15.07;;;28.80;56.00;;;;;;4738976;55;21029;-28
2021/06/22 12:44:38;;;;;;;41.10;15.02;;;28.80;56.60;;;;;;4773876;55;21029;-23
2021/06/22 12:49:40;;;;;;;38.50;15.00;;;28.70;57.00;;;;;;4752878;55;21033;-29
2021/06/22 12:54:43;;;;;;;37.45;15.00;;;28.80;57.40;;;;;;4772132;55;21017;-30
2021/06/22 12:59:47;;;;;;;41.83;15.48;;;28.70;57.90;;;;;;4762297;55;21517;-29
2021/06/22 13:04:50;;;;;;;60.97;20.80;;;28.70;57.40;;;;;;4745945;55;21089;-26
2021/06/22 13:09:53;;;;;;;66.68;22.98;;;28.80;54.70;;;;;;4770430;55;21034;-29
2021/06/22 13:14:55;;;;;;;64.40;22.52;;;29.00;53.70;;;;;;4739596;55;21671;-22
2021/06/22 13:20:06;;;;;;;58.70;21.12;;;29.00;53.00;;;;;;4739703;55;21093;-32
2021/06/22 13:25:11;;;;;;;51.83;17.25;;;29.00;52.70;;;;;;4773564;55;21025;-31
2021/06/22 13:30:20;;;;;;;51.65;17.52;;;29.10;52.50;;;;;;4742864;55;21456;-31
2021/06/22 13:35:26;;;;;;;56.80;17.62;;;29.10;52.20;;;;;;4781407;55;22196;-29
2021/06/22 13:40:33;;;;;;;47.25;16.10;;;29.20;52.30;;;;;;4741904;55;20978;-28
2021/06/22 13:45:38;;;;;;;46.05;16.35;;;29.10;52.80;;;;;;4739064;55;21548;-32
2021/06/22 13:50:40;;;;;;;48.35;16.75;;;29.00;53.10;;;;;;4756620;55;20986;-30
2021/06/22 13:55:40;;;;;;;43.25;16.83;;;29.00;53.50;;;;;;4765816;55;22152;-26
2021/06/22 14:00:43;;;;;;;42.05;16.30;;;29.00;54.00;;;;;;4754691;55;21030;-29
2021/06/22 14:05:46;;;;;;;44.15;16.62;;;28.90;54.50;;;;;;4765532;55;21053;-30
2021/06/22 14:10:50;;;;;;;40.10;15.40;;;28.90;54.90;;;;;;4751055;55;21520;-17
2021/06/22 14:15:51;;;;;;;41.92;16.60;;;28.90;55.30;;;;;;4754766;55;21002;-27
2021/06/22 14:20:54;;;;;;;35.55;15.48;;;28.90;55.80;;;;;;4797935;55;21002;-29
2021/06/22 14:25:55;;;;;;;43.20;16.30;;;28.90;56.30;;;;;;4762343;55;21069;-29
2021/06/22 14:30:57;;;;;;;35.10;15.15;;;28.90;56.80;;;;;;4744430;55;20994;-28
2021/06/22 14:35:58;;;;;;;42.28;15.07;;;28.90;57.10;;;;;;4767828;55;21457;-26
2021/06/22 14:40:59;;;;;;;34.47;15.13;;;28.90;57.50;;;;;;4749146;55;21568;-29
2021/06/22 14:46:00;;;;;;;35.97;15.25;;;28.90;57.90;;;;;;4781525;55;21045;-29
2021/06/22 14:51:01;;;;;;;52.58;19.02;;;28.90;58.10;;;;;;4741505;55;20982;-29
2021/06/22 14:56:02;;;;;;;55.88;21.62;;;28.90;55.30;;;;;;4783798;55;21108;-29
2021/06/22 15:01:02;;;;;;;46.63;20.23;;;29.00;54.10;;;;;;4744530;55;20986;-31
2021/06/22 15:06:20;;;;;;;58.35;20.92;;;29.00;54.60;;;;;;4737189;55;21010;-28
2021/06/22 15:11:20;;;;;;;50.35;21.33;;;28.90;54.90;;;;;;4743588;55;21062;-26
2021/06/22 15:16:22;;;;;;;46.10;20.45;;;28.90;55.20;;;;;;4759545;55;21503;-29
2021/06/22 15:21:23;;;;;;;48.25;20.52;;;28.80;55.50;;;;;;4738160;55;21541;-28
2021/06/22 15:26:24;;;;;;;45.42;19.37;;;28.70;55.70;;;;;;4794758;55;21375;-31
2021/06/22 15:31:27;;;;;;;45.88;19.60;;;28.70;55.90;;;;;;4750322;55;21026;-30
2021/06/22 15:36:28;;;;;;;44.00;19.20;;;28.70;56.10;;;;;;4742273;55;21002;-31
2021/06/22 15:41:28;;;;;;;45.85;19.58;;;28.70;56.30;;;;;;4738204;55;21058;-32
2021/06/22 15:46:30;;;;;;;41.72;18.73;;;28.60;56.40;;;;;;4790398;55;21074;-31
2021/06/22 15:51:31;;;;;;;42.90;19.10;;;28.60;56.60;;;;;;4743294;55;21006;-31
2021/06/22 15:56:32;;;;;;;39.25;18.83;;;28.60;56.80;;;;;;4766856;55;21014;-32
2021/06/22 16:01:35;;;;;;;34.67;18.15;;;28.60;56.90;;;;;;4793482;55;20998;-31
2021/06/22 16:06:36;;;;;;;36.63;17.58;;;28.60;57.10;;;;;;4780231;55;21648;-30
2021/06/22 16:11:37;;;;;;;40.60;19.00;;;28.50;57.20;;;;;;4737686;59;21145;-29
2021/06/22 16:16:38;;;;;;;38.75;18.00;;;28.50;57.30;;;;;;4739717;55;21002;-25
2021/06/22 16:21:39;;;;;;;34.55;17.02;;;28.50;57.40;;;;;;4765646;55;21085;-30
2021/06/22 16:26:40;;;;;;;33.17;17.27;;;28.50;57.50;;;;;;4739873;55;21196;-31
2021/06/22 16:31:40;;;;;;;32.80;17.08;;;28.40;57.50;;;;;;4775339;55;20994;-33
2021/06/22 16:36:41;;;;;;;34.05;17.10;;;28.50;57.80;;;;;;4743882;55;21046;-29
2021/06/22 16:41:42;;;;;;;36.50;17.10;;;28.50;57.80;;;;;;4755944;55;21006;-29
2021/06/22 16:46:44;;;;;;;31.55;17.95;;;28.40;57.90;;;;;;4746186;55;21508;-32
2021/06/22 16:51:44;;;;;;;28.67;17.42;;;28.40;58.00;;;;;;4820394;55;21042;-32
2021/06/22 16:56:45;;;;;;;31.83;16.73;;;28.40;58.00;;;;;;4738639;55;21062;-25
2021/06/22 17:01:49;;;;;;;30.25;16.27;;;28.40;58.10;;;;;;4739072;59;21018;-31
2021/06/22 17:06:50;;;;;;;30.20;16.27;;;28.40;58.20;;;;;;4758919;55;21030;-30
2021/06/22 17:11:51;;;;;;;29.20;16.85;;;28.40;58.20;;;;;;4765649;55;21063;-31
2021/06/22 17:16:51;;;;;;;28.55;16.80;;;28.40;58.30;;;;;;4748042;55;21026;-30
2021/06/22 17:21:52;;;;;;;30.67;15.88;;;28.40;58.40;;;;;;4798047;55;21058;-29
2021/06/22 17:26:53;;;;;;;30.40;16.67;;;28.40;58.50;;;;;;4765930;55;21025;-29
2021/06/22 17:31:54;;;;;;;32.55;16.23;;;28.40;58.60;;;;;;4738990;59;21292;-28
2021/06/22 17:36:55;;;;;;;32.10;16.37;;;28.40;58.60;;;;;;4742496;55;21006;-32
2021/06/22 17:41:56;;;;;;;27.70;15.43;;;28.40;58.70;;;;;;4753065;55;20997;-31
2021/06/22 17:46:58;;;;;;;31.73;16.00;;;28.40;58.80;;;;;;4743699;55;21533;-31
2021/06/22 17:51:59;;;;;;;29.05;16.12;;;28.40;58.80;;;;;;4760230;55;21010;-33
2021/06/22 17:57:00;;;;;;;29.37;15.70;;;28.40;58.90;;;;;;4766762;55;21006;-31
2021/06/22 18:02:00;;;;;;;26.73;14.93;;;28.40;59.00;;;;;;4768311;55;20997;-27
2021/06/22 18:07:01;;;;;;;25.77;14.30;;;28.40;59.10;;;;;;4741469;55;21077;-32
2021/06/22 18:12:03;;;;;;;25.10;14.52;;;28.40;59.10;;;;;;4742903;55;21175;-20
2021/06/22 18:17:04;;;;;;;29.23;15.77;;;28.40;59.20;;;;;;4743106;55;21006;-28
2021/06/22 18:22:05;;;;;;;26.40;15.13;;;28.40;59.30;;;;;;4741483;55;21049;-29
2021/06/22 18:27:06;;;;;;;29.23;16.25;;;28.40;59.30;;;;;;4741791;55;21062;-27
2021/06/22 18:32:08;;;;;;;26.02;15.60;;;28.40;59.40;;;;;;4742897;55;20990;-25
2021/06/22 18:37:09;;;;;;;26.00;14.80;;;28.40;59.50;;;;;;4738509;59;21118;-31
2021/06/22 18:42:10;;;;;;;24.73;15.65;;;28.40;59.50;;;;;;4754855;55;20982;-31
2021/06/22 18:47:11;;;;;;;26.35;14.98;;;28.40;59.60;;;;;;4742612;55;21049;-27
2021/06/22 18:52:14;;;;;;;24.52;15.43;;;28.40;59.80;;;;;;4784322;55;21041;-29
2021/06/22 18:57:15;;;;;;;26.23;15.30;;;28.40;59.70;;;;;;4738156;59;21018;-28
2021/06/22 19:02:15;;;;;;;25.77;16.08;;;28.40;59.80;;;;;;4757516;55;20999;-27
2021/06/22 19:07:16;;;;;;;27.45;15.85;;;28.40;59.90;;;;;;4740556;55;21006;-24
2021/06/22 19:12:17;;;;;;;23.48;15.65;;;28.30;59.90;;;;;;4760534;55;21496;-32
2021/06/22 19:17:18;;;;;;;24.67;14.98;;;28.30;59.90;;;;;;4738572;55;21094;-28
2021/06/22 19:22:20;;;;;;;23.30;14.80;;;28.30;60.10;;;;;;4741260;55;21018;-31
2021/06/22 19:27:21;;;;;;;24.50;15.75;;;28.40;60.10;;;;;;4790657;55;21479;-31
2021/06/22 19:32:22;;;;;;;22.65;14.87;;;28.30;60.10;;;;;;4747645;55;21010;-31
2021/06/22 19:37:23;;;;;;;24.40;15.65;;;28.30;60.20;;;;;;4739948;55;21078;-30
2021/06/22 19:42:24;;;;;;;21.60;14.87;;;28.30;60.20;;;;;;4737605;59;21058;-28
2021/06/22 19:47:25;;;;;;;21.35;14.30;;;28.30;60.30;;;;;;4867274;55;21017;-29
2021/06/22 19:52:26;;;;;;;22.25;14.55;;;28.30;60.30;;;;;;4740508;55;21002;-25
2021/06/22 19:57:27;;;;;;;25.98;15.38;;;28.30;60.40;;;;;;4738215;59;20998;-31
2021/06/22 20:02:27;;;;;;;20.65;14.55;;;28.30;60.40;;;;;;4767460;55;21171;-30
2021/06/22 20:07:28;;;;;;;21.37;14.85;;;28.30;60.50;;;;;;4740909;55;20998;-30
2021/06/22 20:12:29;;;;;;;21.95;14.48;;;28.30;60.50;;;;;;4752853;55;21085;-30
2021/06/22 20:17:30;;;;;;;22.85;14.80;;;28.30;60.60;;;;;;4741898;55;21118;-31
2021/06/22 20:22:33;;;;;;;20.15;14.80;;;28.30;60.60;;;;;;4741773;55;21543;-28
2021/06/22 20:27:33;;;;;;;20.92;14.27;;;28.30;60.60;;;;;;4748631;55;21050;-31
2021/06/22 20:32:34;;;;;;;21.70;15.80;;;28.30;60.70;;;;;;4869893;55;20994;-29
2021/06/22 20:37:35;;;;;;;23.33;14.45;;;28.30;60.80;;;;;;4792348;55;21054;-30
2021/06/22 20:42:37;;;;;;;22.23;14.68;;;28.30;60.80;;;;;;4749473;55;21593;-29
2021/06/22 20:47:38;;;;;;;21.58;13.73;;;28.30;60.90;;;;;;4737780;59;21504;-26
2021/06/22 20:52:39;;;;;;;18.55;13.48;;;28.30;60.90;;;;;;4765930;55;21479;-29
2021/06/22 20:57:43;;;;;;;21.70;14.80;;;28.30;60.90;;;;;;4741681;55;21010;-27
2021/06/22 21:02:44;;;;;;;19.77;14.30;;;28.30;61.00;;;;;;4737998;59;21116;-22
2021/06/22 21:07:47;;;;;;;20.98;14.13;;;28.30;61.00;;;;;;4748584;55;21090;-30
2021/06/22 21:12:48;;;;;;;21.08;13.85;;;28.30;61.10;;;;;;4757598;55;21030;-23
2021/06/22 21:17:49;;;;;;;19.85;14.05;;;28.30;61.10;;;;;;4738368;59;21010;-26
2021/06/22 21:22:50;;;;;;;19.00;13.98;;;28.30;61.10;;;;;;4774734;55;21017;-32
2021/06/22 21:27:51;;;;;;;23.23;14.32;;;28.30;61.20;;;;;;4760116;55;21520;-30
2021/06/22 21:32:52;;;;;;;17.62;13.25;;;28.30;61.20;;;;;;4738165;59;21037;-23
2021/06/22 21:37:54;;;;;;;18.95;14.18;;;28.30;61.20;;;;;;4778508;55;21515;-27
2021/06/22 21:42:56;;;;;;;21.85;14.02;;;28.30;61.20;;;;;;4739291;55;21049;-30
2021/06/22 21:47:57;;;;;;;21.42;14.10;;;28.30;61.30;;;;;;4806059;55;20998;-29
2021/06/22 21:52:57;;;;;;;19.42;14.05;;;28.30;61.30;;;;;;4772345;55;21472;-32
2021/06/22 21:57:58;;;;;;;19.92;13.77;;;28.30;61.40;;;;;;4757139;55;21006;-30
2021/06/22 22:03:02;;;;;;;19.67;13.13;;;28.30;61.40;;;;;;4796011;55;21006;-28
2021/06/22 22:08:04;;;;;;;17.50;13.07;;;28.30;61.40;;;;;;4794025;55;21572;-27
2021/06/22 22:13:05;;;;;;;17.10;13.45;;;28.30;61.40;;;;;;4758738;55;21160;-28
2021/06/22 22:18:06;;;;;;;19.37;13.98;;;28.30;61.40;;;;;;4757122;55;21070;-22
2021/06/22 22:23:07;;;;;;;19.42;12.93;;;28.30;61.40;;;;;;4738103;59;21018;-30
2021/06/22 22:28:08;;;;;;;17.98;13.85;;;28.30;61.50;;;;;;4761567;55;21533;-29
2021/06/22 22:33:12;;;;;;;19.45;13.45;;;28.30;61.50;;;;;;4825817;55;21005;-30
2021/06/22 22:38:13;;;;;;;16.37;13.30;;;28.30;61.50;;;;;;4743339;55;21484;-29
2021/06/22 22:43:14;;;;;;;19.23;13.77;;;28.30;61.50;;;;;;4744804;55;21030;-31
2021/06/22 22:48:15;;;;;;;17.45;13.02;;;28.30;61.60;;;;;;4738764;55;20997;-31
2021/06/22 22:53:16;;;;;;;17.30;12.98;;;28.30;61.60;;;;;;4744577;55;21504;-23
2021/06/22 22:58:17;;;;;;;17.25;12.75;;;28.30;61.60;;;;;;4737796;59;21022;-29
2021/06/22 23:03:18;;;;;;;17.45;13.25;;;28.30;61.60;;;;;;4773151;55;21501;-29
2021/06/22 23:08:19;;;;;;;16.10;13.18;;;28.30;61.70;;;;;;4737764;59;21038;-28
2021/06/22 23:13:19;;;;;;;15.68;12.48;;;28.30;61.70;;;;;;4745979;55;21038;-31
2021/06/22 23:18:20;;;;;;;18.65;13.15;;;28.20;61.60;;;;;;4747322;55;21021;-28
2021/06/22 23:23:21;;;;;;;17.77;12.50;;;28.30;61.70;;;;;;4760599;55;21430;-29
2021/06/22 23:28:22;;;;;;;16.92;12.55;;;28.30;61.70;;;;;;4773510;55;22171;-29
2021/06/22 23:33:23;;;;;;;15.85;12.25;;;28.30;61.70;;;;;;4749423;55;21054;-31
2021/06/22 23:38:23;;;;;;;17.87;13.25;;;28.30;61.80;;;;;;4749491;55;20998;-31
2021/06/22 23:43:24;;;;;;;19.52;13.10;;;28.30;61.80;;;;;;4737982;59;21018;-27
2021/06/22 23:48:25;;;;;;;19.25;13.32;;;28.30;61.80;;;;;;4751985;55;21010;-23
2021/06/22 23:53:26;;;;;;;16.23;12.37;;;28.30;61.80;;;;;;4739662;55;21010;-29
2021/06/22 23:58:27;;;;;;;18.02;12.75;;;28.30;61.80;;;;;;4787526;55;21568;-24
